createdAt,value
2022-12-16T00:01:08.528Z,2.35
2022-12-16T00:03:38.034Z,2.40
2022-12-16T00:06:06.166Z,2.42
2022-12-16T00:08:34.748Z,2.43
2022-12-16T00:11:02.814Z,2.44
2022-12-16T00:13:31.661Z,2.42
2022-12-16T00:15:59.907Z,2.43
2022-12-16T00:18:27.970Z,2.47
2022-12-16T00:20:57.250Z,2.49
2022-12-16T00:23:25.193Z,2.53
2022-12-16T00:25:53.191Z,2.59
2022-12-16T00:28:23.116Z,2.57
2022-12-16T00:30:51.395Z,2.54
2022-12-16T00:33:20.368Z,2.50
2022-12-16T00:35:48.444Z,2.50
2022-12-16T00:38:17.739Z,2.49
2022-12-16T00:40:45.647Z,2.48
2022-12-16T00:43:13.524Z,2.43
2022-12-16T00:45:41.434Z,2.39
2022-12-16T00:48:09.338Z,2.36
2022-12-16T00:50:37.465Z,2.28
2022-12-16T00:53:05.503Z,2.27
2022-12-16T00:55:34.784Z,2.24
2022-12-16T00:58:02.705Z,2.22
2022-12-16T01:00:30.680Z,2.20
2022-12-16T01:02:58.763Z,2.19
2022-12-16T01:05:27.650Z,2.20
2022-12-16T01:07:55.997Z,2.21
2022-12-16T01:10:24.185Z,2.20
2022-12-16T01:12:53.429Z,2.18
2022-12-16T01:15:23.163Z,2.20
2022-12-16T01:17:51.069Z,2.21
2022-12-16T01:20:19.017Z,2.22
2022-12-16T01:22:46.895Z,2.20
2022-12-16T01:25:14.795Z,2.16
2022-12-16T01:27:43.853Z,2.16
2022-12-16T01:30:14.128Z,2.17
2022-12-16T01:32:42.046Z,2.14
2022-12-16T01:35:29.438Z,2.06
2022-12-16T01:37:58.329Z,1.95
2022-12-16T01:40:26.396Z,1.89
2022-12-16T01:42:54.253Z,1.89
2022-12-16T01:45:31.031Z,1.93
2022-12-16T01:47:59.636Z,1.95
2022-12-16T01:50:27.599Z,1.99
2022-12-16T01:52:56.937Z,2.01
2022-12-16T01:55:34.945Z,2.05
2022-12-16T01:58:04.543Z,2.09
2022-12-16T02:00:33.870Z,2.10
2022-12-16T02:03:01.902Z,2.13
2022-12-16T02:05:30.165Z,2.14
2022-12-16T02:08:02.148Z,2.13
2022-12-16T02:13:26.361Z,2.05
2022-12-16T02:15:59.729Z,1.93
2022-12-16T02:18:33.428Z,1.95
2022-12-16T02:21:27.955Z,1.95
2022-12-16T02:24:41.972Z,1.87
2022-12-16T02:30:52.297Z,1.79
2022-12-16T02:33:29.106Z,1.75
2022-12-16T02:35:59.724Z,1.68
2022-12-16T02:38:28.489Z,1.69
2022-12-16T02:40:58.539Z,1.71
2022-12-16T02:46:25.076Z,1.72
2022-12-16T02:48:53.768Z,1.80
2022-12-16T02:51:21.779Z,1.80
2022-12-16T02:53:49.693Z,1.82
2022-12-16T02:56:25.237Z,1.83
2022-12-16T02:58:55.448Z,1.89
2022-12-16T03:04:13.978Z,1.87
2022-12-16T03:06:42.055Z,1.86
2022-12-16T03:09:10.791Z,1.82
2022-12-16T03:11:38.681Z,1.81
2022-12-16T03:14:06.669Z,1.79
2022-12-16T03:16:35.975Z,1.76
2022-12-16T03:19:20.266Z,1.70
2022-12-16T03:21:51.333Z,1.59
2022-12-16T03:24:19.566Z,1.52
2022-12-16T03:26:54.065Z,1.46
2022-12-16T03:29:25.731Z,1.52
2022-12-16T03:31:56.718Z,1.56
2022-12-16T03:37:14.174Z,1.52
2022-12-16T03:39:43.555Z,1.51
2022-12-16T03:42:11.536Z,1.51
2022-12-16T03:44:39.477Z,1.56
2022-12-16T03:47:08.789Z,1.60
2022-12-16T03:49:36.663Z,1.58
2022-12-16T03:54:50.099Z,1.45
2022-12-16T03:57:18.383Z,1.43
2022-12-16T03:59:46.292Z,1.45
2022-12-16T04:02:15.692Z,1.45
2022-12-16T04:04:43.691Z,1.42
2022-12-16T04:07:24.703Z,1.39
2022-12-16T04:09:52.984Z,1.37
2022-12-16T04:12:40.159Z,1.39
2022-12-16T04:15:34.801Z,1.34
2022-12-16T04:18:21.785Z,1.33
2022-12-16T04:21:09.215Z,1.30
2022-12-16T04:23:54.703Z,1.31
2022-12-16T04:26:28.743Z,1.34
2022-12-16T04:28:56.671Z,1.36
2022-12-16T04:31:24.582Z,1.40
2022-12-16T04:34:11.619Z,1.43
2022-12-16T04:36:56.986Z,1.39
2022-12-16T04:39:42.583Z,1.36
2022-12-16T04:45:31.042Z,1.32
2022-12-16T04:48:16.443Z,1.29
2022-12-16T04:51:03.195Z,1.28
2022-12-16T04:53:48.751Z,1.27
2022-12-16T04:56:34.284Z,1.27
2022-12-16T05:02:22.801Z,1.36
2022-12-16T05:05:07.525Z,1.42
2022-12-16T05:07:54.436Z,1.52
2022-12-16T05:10:39.788Z,1.54
2022-12-16T05:13:25.088Z,1.60
2022-12-16T05:16:10.711Z,1.62
2022-12-16T05:18:56.491Z,1.60
2022-12-16T05:21:56.082Z,1.55
2022-12-16T05:24:42.760Z,1.49
2022-12-16T05:27:28.152Z,1.44
2022-12-16T05:30:13.631Z,1.37
2022-12-16T05:32:55.409Z,1.27
2022-12-16T05:35:40.960Z,1.28
2022-12-16T05:38:26.322Z,1.25
2022-12-16T05:41:13.072Z,1.23
2022-12-16T05:43:58.607Z,1.27
2022-12-16T05:46:44.061Z,1.32
2022-12-16T05:49:29.364Z,1.35
2022-12-16T05:52:14.968Z,1.41
2022-12-16T05:55:00.161Z,1.38
2022-12-16T05:57:46.673Z,1.43
2022-12-16T06:00:32.936Z,1.40
2022-12-16T06:03:18.355Z,1.35
2022-12-16T06:06:03.665Z,1.27
2022-12-16T06:08:48.852Z,1.20
2022-12-16T06:11:34.424Z,1.15
2022-12-16T06:14:21.123Z,1.07
2022-12-16T06:17:06.663Z,1.10
2022-12-16T06:19:52.132Z,1.11
2022-12-16T06:22:37.528Z,1.16
2022-12-16T06:25:23.543Z,1.18
2022-12-16T06:28:12.071Z,1.19
2022-12-16T06:30:58.958Z,1.19
2022-12-16T06:33:44.265Z,1.21
2022-12-16T06:36:34.952Z,1.23
2022-12-16T06:39:20.306Z,1.26
2022-12-16T06:42:05.781Z,1.23
2022-12-16T06:44:50.902Z,1.27
2022-12-16T06:47:37.623Z,1.23
2022-12-16T06:50:23.627Z,1.20
2022-12-16T06:53:08.990Z,1.19
2022-12-16T06:55:55.027Z,1.14
2022-12-16T06:58:40.701Z,1.25
2022-12-16T07:01:26.379Z,1.30
2022-12-16T07:04:13.494Z,1.28
2022-12-16T07:07:13.350Z,1.25
2022-12-16T07:09:58.628Z,1.21
2022-12-16T07:12:44.016Z,1.03
2022-12-16T07:15:29.832Z,1.16
2022-12-16T07:18:15.304Z,1.13
2022-12-16T07:21:02.328Z,1.14
2022-12-16T07:23:56.097Z,1.10
2022-12-16T07:26:41.472Z,1.10
2022-12-16T07:29:26.645Z,1.11
2022-12-16T07:32:12.207Z,1.03
2022-12-16T07:34:57.527Z,1.05
2022-12-16T07:37:44.572Z,1.04
2022-12-16T07:40:30.001Z,1.05
2022-12-16T07:43:15.449Z,0.98
2022-12-16T07:46:00.744Z,1.05
2022-12-16T07:48:46.090Z,1.08
2022-12-16T07:51:31.564Z,1.07
2022-12-16T07:54:18.588Z,1.06
2022-12-16T07:57:04.066Z,1.02
2022-12-16T07:59:49.466Z,1.00
2022-12-16T08:02:35.056Z,0.96
2022-12-16T08:05:20.615Z,0.93
2022-12-16T08:08:06.084Z,0.92
2022-12-16T08:10:52.884Z,0.86
2022-12-16T08:13:41.144Z,0.77
2022-12-16T08:16:26.897Z,0.86
2022-12-16T08:19:12.052Z,0.86
2022-12-16T08:21:57.112Z,0.93
2022-12-16T08:24:44.610Z,0.98
2022-12-16T08:27:48.082Z,1.07
2022-12-16T08:30:33.624Z,1.13
2022-12-16T08:33:19.962Z,1.16
2022-12-16T08:36:13.793Z,1.27
2022-12-16T08:38:59.807Z,1.32
2022-12-16T08:41:45.218Z,1.43
2022-12-16T08:44:31.968Z,1.48
2022-12-16T08:47:17.463Z,1.55
2022-12-16T08:50:01.655Z,1.62
2022-12-16T08:52:47.866Z,1.70
2022-12-16T08:55:33.303Z,1.75
2022-12-16T08:58:18.694Z,1.79
2022-12-16T09:01:07.764Z,1.81
2022-12-16T09:03:53.506Z,1.80
2022-12-16T09:06:40.957Z,1.82
2022-12-16T09:09:27.021Z,1.86
2022-12-16T09:12:12.862Z,1.92
2022-12-16T09:14:58.463Z,2.00
2022-12-16T09:17:45.290Z,2.08
2022-12-16T09:20:30.753Z,2.16
2022-12-16T09:23:20.009Z,2.31
2022-12-16T09:26:05.436Z,2.37
2022-12-16T09:28:50.602Z,2.47
2022-12-16T09:31:36.451Z,2.55
2022-12-16T09:34:23.651Z,2.64
2022-12-16T09:37:08.766Z,2.73
2022-12-16T09:39:54.619Z,2.80
2022-12-16T09:42:43.446Z,2.86
2022-12-16T09:45:32.803Z,2.91
2022-12-16T09:48:19.851Z,3.00
2022-12-16T09:51:12.776Z,3.10
2022-12-16T09:53:58.308Z,3.20
2022-12-16T09:56:46.885Z,3.27
2022-12-16T09:59:32.953Z,3.37
2022-12-16T10:02:26.907Z,3.51
2022-12-16T10:05:12.388Z,3.64
2022-12-16T10:08:04.661Z,3.68
2022-12-16T10:10:53.232Z,3.84
2022-12-16T10:13:43.731Z,3.97
2022-12-16T10:16:32.170Z,4.08
2022-12-16T10:19:19.869Z,4.18
2022-12-16T10:22:08.924Z,4.34
2022-12-16T10:25:03.693Z,4.45
2022-12-16T10:27:51.927Z,4.57
2022-12-16T10:30:38.196Z,4.75
2022-12-16T10:33:24.080Z,5.07
2022-12-16T10:36:10.557Z,5.37
2022-12-16T10:38:57.077Z,5.72
2022-12-16T10:41:45.191Z,5.99
2022-12-16T10:44:35.042Z,5.92
2022-12-16T10:47:20.693Z,5.64
2022-12-16T10:50:14.672Z,5.68
2022-12-16T10:53:08.511Z,5.98
2022-12-16T10:56:01.138Z,6.27
2022-12-16T10:58:54.396Z,6.58
2022-12-16T11:01:42.047Z,6.80
2022-12-16T11:04:49.017Z,7.01
2022-12-16T11:07:41.748Z,7.19
2022-12-16T11:10:45.313Z,7.36
2022-12-16T11:13:33.528Z,7.51
2022-12-16T11:16:29.847Z,7.65
2022-12-16T11:19:15.151Z,7.78
2022-12-16T11:22:00.639Z,7.72
2022-12-16T11:24:46.016Z,7.59
2022-12-16T11:27:35.872Z,7.65
2022-12-16T11:30:22.338Z,7.70
2022-12-16T11:33:12.933Z,7.96
2022-12-16T11:35:59.860Z,8.35
2022-12-16T11:38:46.057Z,8.39
2022-12-16T11:41:40.673Z,7.81
2022-12-16T11:44:29.307Z,7.52
2022-12-16T11:47:14.705Z,7.55
2022-12-16T11:50:01.419Z,7.76
2022-12-16T11:52:46.796Z,7.97
2022-12-16T11:58:46.476Z,8.57
2022-12-16T12:01:34.101Z,8.78
2022-12-16T12:04:19.399Z,8.91
2022-12-16T12:07:21.994Z,8.96
2022-12-16T12:10:21.956Z,8.99
2022-12-16T12:13:08.710Z,9.03
2022-12-16T12:15:57.636Z,9.02
2022-12-16T12:18:55.928Z,9.13
2022-12-16T12:21:42.700Z,9.11
2022-12-16T12:24:36.574Z,9.07
2022-12-16T12:27:26.898Z,9.02
2022-12-16T12:30:17.906Z,8.97
2022-12-16T12:33:07.774Z,8.92
2022-12-16T12:36:16.876Z,9.05
2022-12-16T12:39:10.486Z,9.26
2022-12-16T12:42:07.090Z,9.50
2022-12-16T12:45:05.442Z,9.71
2022-12-16T12:47:53.098Z,9.93
2022-12-16T12:50:40.503Z,10.15
2022-12-16T12:53:36.875Z,10.31
2022-12-16T12:56:25.237Z,10.42
2022-12-16T12:59:13.150Z,10.55
2022-12-16T13:01:59.317Z,10.65
2022-12-16T13:04:44.540Z,10.75
2022-12-16T13:07:29.709Z,10.88
2022-12-16T13:10:51.872Z,11.00
2022-12-16T13:13:51.384Z,11.14
2022-12-16T13:17:25.802Z,11.42
2022-12-16T13:20:16.427Z,11.85
2022-12-16T13:23:02.672Z,12.20
2022-12-16T13:26:00.022Z,12.55
2022-12-16T13:28:46.725Z,12.78
2022-12-16T13:31:34.322Z,12.94
2022-12-16T13:34:22.607Z,12.85
2022-12-16T13:37:14.237Z,12.95
2022-12-16T13:40:02.185Z,13.06
2022-12-16T13:43:08.888Z,13.20
2022-12-16T13:45:55.972Z,13.29
2022-12-16T13:48:59.240Z,13.17
2022-12-16T13:52:26.831Z,12.79
2022-12-16T13:55:24.486Z,12.78
2022-12-16T13:58:10.266Z,12.76
2022-12-16T14:00:55.818Z,12.38
2022-12-16T14:03:47.507Z,11.93
2022-12-16T14:06:35.048Z,11.55
2022-12-16T14:09:22.913Z,11.25
2022-12-16T14:12:11.802Z,10.98
2022-12-16T14:15:06.735Z,10.78
2022-12-16T14:17:53.796Z,10.60
2022-12-16T14:20:41.124Z,10.47
2022-12-16T14:23:55.997Z,10.35
2022-12-16T14:26:38.748Z,10.47
2022-12-16T14:29:34.347Z,10.41
2022-12-16T14:32:19.618Z,10.11
2022-12-16T14:35:04.918Z,10.32
2022-12-16T14:38:04.398Z,10.64
2022-12-16T14:40:50.284Z,10.95
2022-12-16T14:43:36.771Z,11.22
2022-12-16T14:46:20.336Z,11.39
2022-12-16T14:49:06.278Z,11.45
2022-12-16T14:51:52.297Z,11.39
2022-12-16T14:54:39.622Z,11.53
2022-12-16T14:57:28.922Z,11.76
2022-12-16T15:00:32.727Z,11.34
2022-12-16T15:03:21.571Z,10.82
2022-12-16T15:06:07.090Z,10.35
2022-12-16T15:08:54.468Z,9.97
2022-12-16T15:11:41.920Z,9.63
2022-12-16T15:14:25.741Z,9.28
2022-12-16T15:17:11.242Z,9.10
2022-12-16T15:20:03.617Z,8.87
2022-12-16T15:22:49.829Z,8.67
2022-12-16T15:25:37.790Z,8.52
2022-12-16T15:28:23.058Z,8.29
2022-12-16T15:31:08.493Z,8.28
2022-12-16T15:33:54.775Z,8.12
2022-12-16T15:36:46.691Z,8.03
2022-12-16T15:39:39.256Z,7.92
2022-12-16T15:42:24.701Z,7.78
2022-12-16T15:45:09.756Z,7.66
2022-12-16T15:47:55.859Z,7.54
2022-12-16T15:50:42.361Z,7.42
2022-12-16T15:53:45.384Z,7.30
2022-12-16T15:56:36.496Z,7.20
2022-12-16T15:59:40.184Z,7.10
2022-12-16T16:02:26.344Z,7.02
2022-12-16T16:05:12.134Z,6.95
2022-12-16T16:08:03.555Z,6.88
2022-12-16T16:10:51.484Z,6.78
2022-12-16T16:13:37.217Z,6.68
2022-12-16T16:16:22.533Z,6.53
2022-12-16T16:19:07.820Z,6.45
2022-12-16T16:21:53.609Z,6.29
2022-12-16T16:24:39.035Z,6.17
2022-12-16T16:27:29.040Z,6.11
2022-12-16T16:30:14.562Z,6.01
2022-12-16T16:32:59.890Z,5.94
2022-12-16T16:35:45.433Z,5.87
2022-12-16T16:38:30.841Z,5.75
2022-12-16T16:41:16.477Z,5.68
2022-12-16T16:44:03.234Z,5.60
2022-12-16T16:46:50.687Z,5.51
2022-12-16T16:49:40.853Z,5.46
2022-12-16T16:52:30.475Z,5.39
2022-12-16T16:55:15.738Z,5.34
2022-12-16T16:58:01.136Z,5.30
2022-12-16T17:00:47.592Z,5.26
2022-12-16T17:03:33.399Z,5.23
2022-12-16T17:06:19.280Z,5.17
2022-12-16T17:09:04.476Z,5.16
2022-12-16T17:11:49.843Z,5.10
2022-12-16T17:14:36.313Z,5.05
2022-12-16T17:17:23.683Z,5.00
2022-12-16T17:20:09.226Z,4.94
2022-12-16T17:22:54.694Z,4.91
2022-12-16T17:25:40.022Z,4.89
2022-12-16T17:28:25.571Z,4.84
2022-12-16T17:31:11.122Z,4.83
2022-12-16T17:33:57.718Z,4.82
2022-12-16T17:36:43.193Z,4.85
2022-12-16T17:39:28.626Z,4.88
2022-12-16T17:42:14.019Z,4.89
2022-12-16T17:44:59.513Z,4.86
2022-12-16T17:47:44.971Z,4.86
2022-12-16T17:50:32.043Z,4.87
2022-12-16T17:53:17.466Z,4.85
2022-12-16T17:56:02.870Z,4.83
2022-12-16T17:58:45.562Z,4.80
2022-12-16T18:01:30.949Z,4.76
2022-12-16T18:04:16.676Z,4.73
2022-12-16T18:07:03.687Z,4.75
2022-12-16T18:09:49.128Z,4.72
2022-12-16T18:12:39.962Z,4.70
2022-12-16T18:15:25.976Z,4.71
2022-12-16T18:18:11.401Z,4.73
2022-12-16T18:20:56.979Z,4.71
2022-12-16T18:23:43.941Z,4.72
2022-12-16T18:26:29.609Z,4.75
2022-12-16T18:29:14.910Z,4.75
2022-12-16T18:32:00.271Z,4.76
2022-12-16T18:34:45.497Z,4.76
2022-12-16T18:37:31.025Z,4.75
2022-12-16T18:40:18.206Z,4.72
2022-12-16T18:43:03.578Z,4.68
2022-12-16T18:45:49.633Z,4.63
2022-12-16T18:48:35.067Z,4.59
2022-12-16T18:51:34.670Z,4.55
2022-12-16T18:54:19.845Z,4.51
2022-12-16T18:57:06.581Z,4.49
2022-12-16T18:59:52.116Z,4.48
2022-12-16T19:02:37.709Z,4.53
2022-12-16T19:05:23.650Z,4.47
2022-12-16T19:08:14.093Z,4.43
2022-12-16T19:10:59.990Z,4.35
2022-12-16T19:13:47.077Z,4.34
2022-12-16T19:16:32.444Z,4.34
2022-12-16T19:19:20.282Z,4.37
2022-12-16T19:22:05.781Z,4.42
2022-12-16T19:24:51.146Z,4.46
2022-12-16T19:27:37.563Z,4.54
2022-12-16T19:30:25.898Z,4.59
2022-12-16T19:33:11.305Z,4.65
2022-12-16T19:35:56.949Z,4.69
2022-12-16T19:38:42.131Z,4.67
2022-12-16T19:41:32.446Z,4.77
2022-12-16T19:44:18.016Z,4.83
2022-12-16T19:47:04.607Z,4.87
2022-12-16T19:49:49.883Z,4.90
2022-12-16T19:52:35.197Z,4.95
2022-12-16T19:55:20.498Z,5.01
2022-12-16T19:58:05.937Z,5.07
2022-12-16T20:00:51.172Z,5.08
2022-12-16T20:03:38.921Z,5.14
2022-12-16T20:06:25.655Z,5.15
2022-12-16T20:09:11.044Z,5.15
2022-12-16T20:11:56.680Z,5.14
2022-12-16T20:14:41.657Z,5.10
2022-12-16T20:17:26.989Z,5.10
2022-12-16T20:20:14.088Z,5.10
2022-12-16T20:22:59.444Z,5.11
2022-12-16T20:25:45.027Z,5.08
2022-12-16T20:28:26.848Z,5.06
2022-12-16T20:31:26.929Z,5.01
2022-12-16T20:34:12.308Z,4.97
2022-12-16T20:36:59.319Z,4.91
2022-12-16T20:39:51.153Z,4.88
2022-12-16T20:42:41.597Z,4.88
2022-12-16T20:45:28.160Z,4.91
2022-12-16T20:48:13.512Z,4.91
2022-12-16T20:50:58.738Z,4.92
2022-12-16T20:53:45.777Z,4.91
2022-12-16T20:56:30.915Z,4.94
2022-12-16T20:59:16.191Z,4.92
2022-12-16T21:05:06.587Z,4.94
2022-12-16T21:07:52.242Z,4.96
2022-12-16T21:10:40.508Z,4.98
2022-12-16T21:13:26.513Z,4.97
2022-12-16T21:16:12.075Z,4.95
2022-12-16T21:18:57.450Z,4.94
2022-12-16T21:21:43.019Z,4.91
2022-12-16T21:24:28.080Z,4.87
2022-12-16T21:27:15.108Z,4.86
2022-12-16T21:30:00.608Z,4.86
2022-12-16T21:32:45.797Z,4.88
2022-12-16T21:35:31.301Z,4.89
2022-12-16T21:38:16.518Z,4.90
2022-12-16T21:41:01.691Z,4.92
2022-12-16T21:43:48.907Z,4.92
2022-12-16T21:46:34.056Z,4.89
2022-12-16T21:49:19.519Z,4.87
2022-12-16T21:52:04.948Z,4.84
2022-12-16T21:54:50.266Z,4.83
2022-12-16T21:57:41.156Z,4.81
2022-12-16T22:00:30.725Z,4.81
2022-12-16T22:03:21.549Z,4.80
2022-12-16T22:06:07.236Z,4.80
2022-12-16T22:08:52.498Z,4.81
2022-12-16T22:11:43.677Z,4.86
2022-12-16T22:14:29.060Z,4.90
2022-12-16T22:17:15.311Z,4.90
2022-12-16T22:20:00.678Z,4.95
2022-12-16T22:22:45.745Z,4.99
2022-12-16T22:25:31.059Z,5.04
2022-12-16T22:28:16.433Z,5.10
2022-12-16T22:31:01.988Z,5.15
2022-12-16T22:33:48.893Z,5.19
2022-12-16T22:36:34.216Z,5.25
2022-12-16T22:39:19.791Z,5.28
2022-12-16T22:42:05.145Z,5.31
2022-12-16T22:44:51.324Z,5.35
2022-12-16T22:47:37.388Z,5.37
2022-12-16T22:50:24.978Z,5.38
2022-12-16T22:53:10.353Z,5.34
2022-12-16T22:56:00.217Z,5.29
2022-12-16T22:58:47.273Z,5.23
2022-12-16T23:01:32.714Z,5.20
2022-12-16T23:04:18.623Z,5.18
2022-12-16T23:07:05.325Z,5.18
2022-12-16T23:09:50.724Z,5.20
2022-12-16T23:12:37.032Z,5.22
2022-12-16T23:15:22.980Z,5.23
2022-12-16T23:18:08.319Z,5.27
2022-12-16T23:20:53.647Z,5.22
2022-12-16T23:23:43.309Z,5.23
2022-12-16T23:26:40.354Z,5.20
2022-12-16T23:29:25.501Z,5.18
2022-12-16T23:32:10.934Z,5.16
2022-12-16T23:34:56.280Z,5.14
2022-12-16T23:37:41.701Z,5.12
2022-12-16T23:40:38.050Z,5.13
2022-12-16T23:43:23.514Z,5.07
2022-12-16T23:46:08.833Z,5.03
2022-12-16T23:48:55.204Z,5.02
2022-12-16T23:51:40.927Z,5.03
2022-12-16T23:54:26.339Z,5.06
2022-12-16T23:57:13.250Z,5.06
2022-12-16T23:59:58.720Z,5.05
